createdAt,value
2022-10-22T00:00:37.752Z,99.90
2022-10-22T00:05:40.598Z,99.90
2022-10-22T00:10:43.701Z,99.90
2022-10-22T00:15:47.867Z,99.90
2022-10-22T00:20:50.659Z,99.90
2022-10-22T00:25:54.347Z,99.90
2022-10-22T00:31:00.033Z,99.90
2022-10-22T00:36:02.887Z,99.90
2022-10-22T00:41:05.829Z,99.90
2022-10-22T00:46:09.965Z,99.90
2022-10-22T00:51:13.071Z,99.90
2022-10-22T00:56:16.528Z,99.90
2022-10-22T01:01:24.648Z,99.90
2022-10-22T01:06:29.868Z,99.90
2022-10-22T01:11:42.498Z,99.90
2022-10-22T01:16:52.512Z,99.90
2022-10-22T01:22:00.511Z,99.90
2022-10-22T01:27:30.883Z,99.90
2022-10-22T01:32:40.540Z,99.90
2022-10-22T01:37:49.224Z,99.90
2022-10-22T01:42:59.865Z,99.90
2022-10-22T01:48:18.024Z,99.90
2022-10-22T01:53:28.335Z,99.90
2022-10-22T01:58:40.607Z,99.90
2022-10-22T02:03:51.852Z,99.90
2022-10-22T02:08:57.262Z,99.90
2022-10-22T02:14:04.115Z,99.90
2022-10-22T02:19:15.787Z,99.90
2022-10-22T02:24:19.436Z,99.90
2022-10-22T02:29:27.482Z,99.90
2022-10-22T02:34:33.030Z,99.90
2022-10-22T02:39:37.480Z,99.90
2022-10-22T02:44:40.326Z,99.90
2022-10-22T02:49:44.465Z,99.90
2022-10-22T02:54:47.234Z,99.90
2022-10-22T02:59:49.939Z,99.90
2022-10-22T03:04:54.051Z,99.90
2022-10-22T03:09:56.898Z,99.90
2022-10-22T03:14:59.665Z,99.90
2022-10-22T03:20:04.548Z,99.90
2022-10-22T03:25:12.083Z,99.90
2022-10-22T03:30:14.871Z,99.90
2022-10-22T03:35:18.977Z,99.90
2022-10-22T03:40:22.104Z,99.90
2022-10-22T03:45:25.025Z,99.90
2022-10-22T03:50:29.340Z,99.90
2022-10-22T03:55:32.074Z,99.90
2022-10-22T04:00:36.489Z,99.90
2022-10-22T04:05:40.548Z,99.90
2022-10-22T04:10:43.267Z,99.90
2022-10-22T04:20:55.005Z,99.90
2022-10-22T04:26:00.003Z,99.90
2022-10-22T04:31:09.132Z,99.90
2022-10-22T04:36:16.101Z,99.90
2022-10-22T04:41:21.063Z,99.90
2022-10-22T04:46:24.840Z,99.90
2022-10-22T04:51:28.957Z,99.90
2022-10-22T04:56:32.991Z,99.90
2022-10-22T05:01:40.178Z,99.90
2022-10-22T05:06:47.441Z,99.90
2022-10-22T05:11:51.906Z,99.90
2022-10-22T05:16:55.276Z,99.90
2022-10-22T05:22:02.195Z,99.90
2022-10-22T05:27:05.138Z,99.90
2022-10-22T05:32:07.942Z,99.90
2022-10-22T05:37:12.066Z,99.90
2022-10-22T05:42:14.830Z,99.90
2022-10-22T05:47:17.599Z,99.90
2022-10-22T05:52:21.699Z,99.90
2022-10-22T05:57:24.520Z,99.90
2022-10-22T06:02:27.317Z,99.90
2022-10-22T06:07:33.242Z,99.90
2022-10-22T06:12:35.983Z,99.90
2022-10-22T06:17:38.792Z,99.90
2022-10-22T06:22:43.126Z,99.90
2022-10-22T06:27:51.433Z,99.90
2022-10-22T06:32:54.196Z,99.90
2022-10-22T06:37:58.380Z,99.90
2022-10-22T06:43:01.467Z,99.90
2022-10-22T06:48:04.608Z,99.90
2022-10-22T06:53:08.722Z,99.90
2022-10-22T06:58:11.584Z,99.90
2022-10-22T07:03:14.706Z,99.90
2022-10-22T07:08:18.818Z,99.90
2022-10-22T07:13:21.654Z,99.90
2022-10-22T07:18:24.376Z,99.90
2022-10-22T07:23:29.287Z,99.90
2022-10-22T07:28:33.426Z,99.90
2022-10-22T07:33:36.786Z,99.90
2022-10-22T07:38:40.863Z,99.90
2022-10-22T07:43:44.035Z,99.90
2022-10-22T07:48:46.904Z,99.90
2022-10-22T07:53:51.000Z,99.90
2022-10-22T07:58:53.760Z,99.90
2022-10-22T08:03:56.521Z,99.90
2022-10-22T08:09:00.654Z,99.90
2022-10-22T08:14:03.445Z,99.90
2022-10-22T08:19:06.195Z,99.90
2022-10-22T08:24:10.507Z,99.90
2022-10-22T08:29:13.239Z,99.90
2022-10-22T08:34:16.051Z,99.90
2022-10-22T08:39:20.131Z,99.90
2022-10-22T08:44:47.386Z,99.90
2022-10-22T08:49:50.535Z,99.90
2022-10-22T08:54:58.160Z,99.90
2022-10-22T09:00:06.669Z,99.90
2022-10-22T09:05:30.198Z,99.90
2022-10-22T09:10:37.252Z,99.90
2022-10-22T09:15:41.674Z,99.90
2022-10-22T09:20:51.339Z,99.90
2022-10-22T09:25:57.177Z,99.90
2022-10-22T09:30:59.907Z,99.90
2022-10-22T09:36:04.528Z,99.90
2022-10-22T09:41:10.375Z,99.90
2022-10-22T09:46:18.197Z,99.90
2022-10-22T09:51:23.145Z,99.90
2022-10-22T09:56:29.850Z,99.90
2022-10-22T10:01:35.231Z,99.90
2022-10-22T10:06:40.202Z,99.90
2022-10-22T10:11:49.256Z,99.90
2022-10-22T10:16:59.421Z,99.90
2022-10-22T10:22:11.779Z,1.00
2022-10-22T10:27:26.725Z,52.20
2022-10-22T10:32:48.124Z,1.00
2022-10-22T10:38:05.969Z,1.00
2022-10-22T10:43:14.914Z,99.90
2022-10-22T10:48:45.005Z,1.00
2022-10-22T10:54:08.696Z,99.90
2022-10-22T10:59:20.057Z,1.00
2022-10-22T11:04:56.864Z,1.00
2022-10-22T11:10:04.247Z,1.00
2022-10-22T11:15:20.358Z,1.00
2022-10-22T11:20:29.373Z,99.90
2022-10-22T11:25:35.619Z,99.90
2022-10-22T11:30:44.129Z,1.00
2022-10-22T11:35:48.093Z,1.00
2022-10-22T11:40:55.819Z,99.90
2022-10-22T11:46:09.668Z,1.00
2022-10-22T11:51:31.161Z,99.90
2022-10-22T11:56:39.213Z,99.90
2022-10-22T12:01:44.102Z,99.90
2022-10-22T12:06:55.964Z,49.00
2022-10-22T12:12:15.345Z,34.60
2022-10-22T12:17:21.983Z,24.60
2022-10-22T12:22:28.458Z,1.00
2022-10-22T12:27:36.929Z,1.00
2022-10-22T12:32:41.559Z,1.00
2022-10-22T12:37:44.623Z,99.90
2022-10-22T12:42:55.498Z,1.00
2022-10-22T12:48:02.058Z,1.00
2022-10-22T12:53:06.659Z,1.00
2022-10-22T12:58:09.504Z,1.00
2022-10-22T13:03:27.910Z,1.00
2022-10-22T13:08:30.675Z,1.00
2022-10-22T13:13:35.558Z,99.90
2022-10-22T13:18:39.617Z,99.90
2022-10-22T13:23:54.404Z,99.90
2022-10-22T13:28:58.507Z,99.90
2022-10-22T13:34:09.796Z,99.90
2022-10-22T13:39:18.839Z,99.90
2022-10-22T13:44:21.677Z,99.90
2022-10-22T13:49:25.783Z,99.90
2022-10-22T13:54:28.645Z,99.90
2022-10-22T13:59:31.441Z,99.90
2022-10-22T14:04:40.041Z,99.90
2022-10-22T14:09:42.908Z,1.00
2022-10-22T14:14:45.764Z,1.00
2022-10-22T14:19:50.517Z,1.00
2022-10-22T14:24:54.254Z,1.00
2022-10-22T14:29:59.529Z,1.00
2022-10-22T14:35:03.963Z,1.00
2022-10-22T14:40:08.053Z,1.00
2022-10-22T14:45:15.260Z,99.90
2022-10-22T14:50:20.354Z,1.00
2022-10-22T14:55:23.073Z,99.90
2022-10-22T15:00:25.891Z,1.00
2022-10-22T15:05:30.450Z,1.00
2022-10-22T15:10:33.190Z,1.00
2022-10-22T15:15:39.426Z,1.00
2022-10-22T15:20:45.467Z,1.00
2022-10-22T15:25:48.339Z,1.00
2022-10-22T15:30:55.451Z,1.00
2022-10-22T15:36:00.082Z,1.00
2022-10-22T15:41:05.434Z,1.00
2022-10-22T15:46:15.260Z,1.00
2022-10-22T15:51:20.588Z,8.90
2022-10-22T15:56:24.070Z,91.30
2022-10-22T16:01:28.342Z,99.90
2022-10-22T16:06:35.351Z,99.90
2022-10-22T16:11:38.814Z,99.90
2022-10-22T16:16:44.610Z,99.90
2022-10-22T16:21:50.752Z,99.90
2022-10-22T16:26:53.857Z,99.90
2022-10-22T16:31:56.709Z,99.90
2022-10-22T16:37:00.842Z,99.90
2022-10-22T16:42:03.643Z,99.90
2022-10-22T16:47:06.526Z,99.90
2022-10-22T16:52:10.653Z,99.90
2022-10-22T16:57:13.741Z,99.90
2022-10-22T17:02:16.598Z,99.90
2022-10-22T17:07:20.677Z,99.90
2022-10-22T17:12:23.529Z,99.90
2022-10-22T17:17:26.313Z,99.90
2022-10-22T17:22:30.426Z,99.90
2022-10-22T17:27:33.157Z,99.90
2022-10-22T17:32:38.054Z,99.90
2022-10-22T17:37:42.536Z,99.90
2022-10-22T18:07:00.221Z,99.90
2022-10-22T19:28:48.029Z,99.90
2022-10-22T19:33:55.366Z,99.90
2022-10-22T19:39:01.812Z,99.90
2022-10-22T19:44:04.770Z,99.90
2022-10-22T19:49:07.524Z,99.90
2022-10-22T19:54:18.360Z,99.90
2022-10-22T19:59:22.675Z,99.90
2022-10-22T20:04:27.936Z,99.90
2022-10-22T20:09:31.996Z,99.90
2022-10-22T20:14:35.017Z,99.90
2022-10-22T20:19:38.335Z,99.90
2022-10-22T20:24:42.515Z,99.90
2022-10-22T20:29:45.253Z,99.90
2022-10-22T20:34:48.084Z,99.90
2022-10-22T20:39:52.263Z,99.90
2022-10-22T20:44:54.993Z,99.90
2022-10-22T20:49:57.772Z,99.90
2022-10-22T20:55:01.962Z,99.90
2022-10-22T21:00:05.315Z,99.90
2022-10-22T21:05:08.886Z,99.90
2022-10-22T21:10:12.973Z,99.90
2022-10-22T21:15:15.751Z,99.90
2022-10-22T21:20:20.978Z,99.90
2022-10-22T21:25:27.945Z,99.90
2022-10-22T21:30:30.729Z,99.90
2022-10-22T21:35:33.543Z,99.90
2022-10-22T21:40:38.494Z,99.90
2022-10-22T21:45:41.295Z,99.90
2022-10-22T21:50:45.241Z,99.90
2022-10-22T21:55:49.529Z,99.90
2022-10-22T22:00:57.063Z,99.90
2022-10-22T22:06:00.326Z,99.90
2022-10-22T22:11:06.676Z,99.90
2022-10-22T22:16:11.874Z,99.90
2022-10-22T22:21:17.882Z,99.90
2022-10-22T22:26:26.772Z,99.90
2022-10-22T22:31:34.295Z,99.90
2022-10-22T22:36:38.822Z,99.90
2022-10-22T22:41:43.090Z,99.90
2022-10-22T22:46:45.983Z,99.90
2022-10-22T22:51:50.116Z,99.90
2022-10-22T22:56:54.278Z,99.90
2022-10-22T23:01:57.082Z,99.90
2022-10-22T23:06:59.963Z,99.90
2022-10-22T23:12:04.297Z,99.90
2022-10-22T23:17:07.047Z,99.90
2022-10-22T23:22:09.788Z,99.90
2022-10-22T23:27:13.959Z,99.90
2022-10-22T23:32:16.763Z,99.90
2022-10-22T23:37:19.814Z,99.90
2022-10-22T23:42:23.914Z,99.90
2022-10-22T23:47:26.690Z,99.90
2022-10-22T23:52:29.612Z,99.90
2022-10-22T23:57:33.721Z,99.90
